Abnaki, Vermont
Current Conditions -  °F | °C
As of 9:55 AM on Monday 22 Dec 2014 (Local Time) from KFSO Reporting Station
Moderate Fog Moderate Fog  
Wind Chill: -7°   Ceiling: 200
Heat Index: -7°   Visibility: 0.5mi
Dew Point: -8°   Wind: 0mph
Humidity: 94%   Direction: NA
Pressure: 30.41"   Gusts: NA
Location:  44.841°N, 73.2779°W
Report Text: KFSO 221455Z AUTO 00000KT 1/2SM FZFG OVC002 M07/M08 A3041 RMK AO2 T10721080
Loading
Personal Weather Stations






























Interactive Weather Map New forecast layout! Learn more

10-Day Weather Forecast

Advertisements
Track Severe Weather on mobile